createdAt,value
2023-03-22T00:04:09.487Z,98.87
2023-03-22T00:09:11.368Z,100.00
2023-03-22T00:14:13.300Z,100.00
2023-03-22T00:19:15.451Z,100.00
2023-03-22T00:24:17.342Z,100.00
2023-03-22T00:29:19.239Z,100.00
2023-03-22T00:34:21.105Z,100.00
2023-03-22T00:39:23.028Z,100.00
2023-03-22T00:44:24.985Z,100.00
2023-03-22T00:49:27.131Z,100.00
2023-03-22T00:54:29.067Z,100.00
2023-03-22T00:59:31.122Z,100.00
2023-03-22T01:04:33.381Z,100.00
2023-03-22T01:09:35.253Z,100.00
2023-03-22T01:14:37.208Z,100.00
2023-03-22T01:19:39.283Z,100.00
2023-03-22T01:24:41.145Z,100.00
2023-03-22T01:29:43.033Z,100.00
2023-03-22T01:34:45.930Z,100.00
2023-03-22T01:39:48.118Z,100.00
2023-03-22T01:45:14.704Z,100.00
2023-03-22T01:50:16.825Z,100.00
2023-03-22T01:55:18.990Z,100.00
2023-03-22T02:00:20.949Z,100.00
2023-03-22T02:05:22.942Z,100.00
2023-03-22T02:10:25.952Z,100.00
2023-03-22T02:15:36.188Z,99.78
2023-03-22T02:20:51.431Z,99.20
2023-03-22T02:26:23.840Z,99.11
2023-03-22T02:31:37.726Z,98.41
2023-03-22T02:37:02.793Z,97.25
2023-03-22T02:42:22.829Z,97.40
2023-03-22T02:47:30.593Z,97.02
2023-03-22T02:52:40.927Z,97.34
2023-03-22T02:57:42.737Z,97.37
2023-03-22T03:02:47.721Z,96.83
2023-03-22T03:07:52.877Z,96.21
2023-03-22T03:12:54.715Z,96.20
2023-03-22T03:18:40.946Z,95.75
2023-03-22T03:23:45.444Z,95.28
2023-03-22T03:28:52.823Z,95.27
2023-03-22T03:33:59.903Z,95.73
2023-03-22T03:39:01.738Z,95.12
2023-03-22T03:44:03.744Z,95.20
2023-03-22T03:49:05.644Z,97.19
2023-03-22T03:54:07.549Z,98.75
2023-03-22T03:59:09.368Z,99.09
2023-03-22T04:04:11.332Z,98.40
2023-03-22T04:09:13.275Z,98.55
2023-03-22T04:14:15.165Z,98.04
2023-03-22T04:19:17.184Z,97.58
2023-03-22T04:24:20.191Z,96.97
2023-03-22T04:29:22.150Z,97.20
2023-03-22T04:34:24.014Z,97.32
2023-03-22T04:39:26.356Z,96.65
2023-03-22T04:44:28.274Z,95.52
2023-03-22T04:49:30.076Z,95.47
2023-03-22T04:54:31.968Z,95.76
2023-03-22T04:59:34.005Z,95.16
2023-03-22T05:04:35.850Z,95.07
2023-03-22T05:09:37.797Z,94.23
2023-03-22T05:14:39.633Z,94.14
2023-03-22T05:19:41.542Z,92.89
2023-03-22T05:24:43.447Z,92.35
2023-03-22T05:29:45.320Z,91.00
2023-03-22T05:34:47.252Z,88.48
2023-03-22T05:39:49.162Z,87.50
2023-03-22T05:44:51.001Z,87.31
2023-03-22T05:49:54.120Z,86.73
2023-03-22T05:54:56.004Z,86.42
2023-03-22T05:59:57.818Z,85.80
2023-03-22T06:04:59.642Z,84.64
2023-03-22T06:10:01.482Z,82.75
2023-03-22T06:15:03.921Z,81.91
2023-03-22T06:20:06.336Z,80.78
2023-03-22T06:25:08.747Z,79.16
2023-03-22T06:30:10.737Z,78.24
2023-03-22T06:35:12.693Z,76.79
2023-03-22T06:40:14.815Z,76.15
2023-03-22T06:45:16.886Z,74.28
2023-03-22T06:50:18.717Z,72.28
2023-03-22T06:55:20.552Z,67.41
2023-03-22T07:00:22.656Z,65.92
2023-03-22T07:05:24.508Z,64.98
2023-03-22T07:10:26.427Z,47.18
2023-03-22T07:15:28.395Z,39.75
2023-03-22T07:20:30.326Z,36.88
2023-03-22T07:25:32.259Z,42.97
2023-03-22T07:30:34.204Z,38.14
2023-03-22T07:35:36.620Z,33.49
2023-03-22T07:40:38.537Z,36.42
2023-03-22T07:45:40.497Z,43.47
2023-03-22T07:50:42.403Z,46.13
2023-03-22T07:55:44.314Z,47.22
2023-03-22T08:00:46.218Z,46.57
2023-03-22T08:05:48.069Z,46.39
2023-03-22T08:10:50.273Z,47.68
2023-03-22T08:15:52.318Z,48.45
2023-03-22T08:20:57.951Z,47.96
2023-03-22T08:25:59.853Z,50.08
2023-03-22T08:31:01.788Z,49.68
2023-03-22T08:36:14.255Z,49.90
2023-03-22T08:41:16.294Z,49.65
2023-03-22T08:46:18.301Z,50.49
2023-03-22T08:51:21.283Z,50.91
2023-03-22T08:56:23.194Z,50.51
2023-03-22T09:01:25.325Z,52.10
2023-03-22T09:06:27.472Z,52.61
2023-03-22T09:11:29.342Z,52.90
2023-03-22T09:16:31.224Z,52.56
2023-03-22T09:21:33.196Z,52.41
2023-03-22T09:26:35.104Z,54.16
2023-03-22T09:31:37.036Z,53.81
2023-03-22T09:36:38.963Z,54.33
2023-03-22T09:41:50.037Z,54.10
2023-03-22T09:46:53.439Z,52.98
2023-03-22T09:51:55.447Z,51.99
2023-03-22T09:57:02.613Z,52.81
2023-03-22T10:02:08.665Z,53.78
2023-03-22T10:07:32.134Z,53.07
2023-03-22T10:12:52.095Z,52.83
2023-03-22T10:17:55.002Z,52.71
2023-03-22T10:22:56.893Z,52.39
2023-03-22T10:27:59.056Z,52.24
2023-03-22T10:33:02.815Z,51.41
2023-03-22T10:38:05.444Z,51.42
2023-03-22T10:43:19.345Z,51.91
2023-03-22T10:48:53.398Z,51.43
2023-03-22T10:53:55.309Z,50.95
2023-03-22T10:58:57.133Z,50.03
2023-03-22T11:04:10.419Z,50.44
2023-03-22T11:09:15.712Z,50.75
2023-03-22T11:14:22.708Z,50.82
2023-03-22T11:19:26.100Z,51.24
2023-03-22T11:24:28.705Z,51.11
2023-03-22T11:29:30.353Z,52.24
2023-03-22T11:34:32.260Z,54.57
2023-03-22T11:39:34.206Z,56.12
2023-03-22T11:44:36.089Z,57.29
2023-03-22T11:49:50.089Z,57.94
2023-03-22T11:54:52.041Z,57.16
2023-03-22T12:00:08.429Z,56.37
2023-03-22T12:05:22.220Z,56.64
2023-03-22T12:10:30.412Z,55.55
2023-03-22T12:15:34.895Z,55.33
2023-03-22T12:20:56.572Z,55.67
2023-03-22T12:26:40.160Z,56.13
2023-03-22T12:32:03.516Z,58.30
2023-03-22T12:37:06.723Z,58.77
2023-03-22T12:42:18.824Z,59.58
2023-03-22T12:47:26.421Z,59.26
2023-03-22T12:52:48.874Z,58.57
2023-03-22T12:57:50.775Z,57.99
2023-03-22T13:03:10.227Z,57.25
2023-03-22T13:08:12.660Z,57.22
2023-03-22T13:13:23.625Z,57.51
2023-03-22T13:18:38.131Z,58.48
2023-03-22T13:24:10.104Z,58.31
2023-03-22T13:29:23.899Z,58.70
2023-03-22T13:34:40.722Z,58.54
2023-03-22T13:39:42.538Z,58.97
2023-03-22T13:44:44.524Z,58.30
2023-03-22T13:49:50.729Z,57.64
2023-03-22T13:54:52.482Z,57.17
2023-03-22T14:00:11.940Z,56.51
2023-03-22T14:05:21.619Z,56.58
2023-03-22T14:10:28.197Z,57.30
2023-03-22T14:15:32.979Z,56.63
2023-03-22T14:20:35.953Z,56.53
